Time;durP1;ratioP1;P1;durP2;ratioP2;P2;SDS_P1;SDS_P2;PMS_P1;PMS_P2;Temp;Humidity;BMP_temperature;BMP_pressure;BME280_temperature;BME280_humidity;BME280_pressure;Samples;Min_cycle;Max_cycle;Signal;HPM_P1;HPM_P2
2022/12/30 00:00:21;;;;;;;1.87;1.00;;;11.70;45.70;;;;;;4991672;28;20170;-72
2022/12/30 00:02:47;;;;;;;1.93;1.13;;;11.90;43.00;;;;;;4991539;28;20594;-72
2022/12/30 00:05:13;;;;;;;1.90;1.10;;;12.30;45.30;;;;;;4991836;28;20177;-73
2022/12/30 00:07:38;;;;;;;3.50;1.40;;;11.90;42.60;;;;;;4992592;28;20522;-74
2022/12/30 00:10:04;;;;;;;1.90;1.10;;;12.30;41.80;;;;;;4994928;28;20681;-73
2022/12/30 00:34:56;;;;;;;2.10;1.20;;;12.10;44.10;;;;;;4994688;28;20963;-74
2022/12/30 00:37:21;;;;;;;1.90;1.10;;;12.30;42.30;;;;;;4994412;28;20417;-73
2022/12/30 00:39:47;;;;;;;2.00;1.13;;;12.10;42.60;;;;;;4994714;28;20413;-72
2022/12/30 00:44:56;;;;;;;2.00;1.10;;;11.80;44.10;;;;;;4994291;28;20621;-72
2022/12/30 00:47:22;;;;;;;1.90;1.00;;;12.20;43.70;;;;;;4994071;28;20414;-72
2022/12/30 00:58:00;;;;;;;1.83;1.00;;;11.90;41.40;;;;;;4993945;28;20457;-73
2022/12/30 01:00:25;;;;;;;2.10;1.10;;;11.50;41.00;;;;;;4993861;28;20413;-73
2022/12/30 01:02:51;;;;;;;2.10;1.20;;;11.40;42.40;;;;;;4993824;28;20265;-73
2022/12/30 01:05:17;;;;;;;2.03;1.20;;;11.60;42.10;;;;;;4993630;28;20174;-72
2022/12/30 01:07:42;;;;;;;2.00;1.10;;;11.80;41.50;;;;;;4993795;28;20374;-73
2022/12/30 01:10:11;;;;;;;1.93;1.10;;;12.10;40.40;;;;;;4993746;28;20237;-72
2022/12/30 01:12:36;;;;;;;2.00;1.00;;;12.20;39.80;;;;;;4993629;28;20185;-72
2022/12/30 01:15:02;;;;;;;1.90;1.10;;;11.70;41.60;;;;;;4993252;28;20409;-73
2022/12/30 01:17:31;;;;;;;2.97;1.60;;;11.50;41.90;;;;;;4993862;28;20244;-72
2022/12/30 01:19:57;;;;;;;2.10;1.20;;;11.90;40.30;;;;;;4992855;28;20959;-73
2022/12/30 01:22:22;;;;;;;2.00;1.00;;;12.10;41.20;;;;;;4993655;28;20405;-73
2022/12/30 01:24:48;;;;;;;2.20;1.13;;;12.50;39.70;;;;;;4992793;28;20429;-73
2022/12/30 01:27:15;;;;;;;2.00;1.07;;;12.20;38.50;;;;;;4993711;28;20425;-72
2022/12/30 01:29:42;;;;;;;2.03;1.10;;;11.70;40.80;;;;;;4993490;28;20288;-72
2022/12/30 01:32:10;;;;;;;2.00;1.10;;;11.70;40.20;;;;;;4993189;28;20416;-73
2022/12/30 01:34:36;;;;;;;2.00;1.10;;;11.70;40.20;;;;;;4993182;28;20433;-73
2022/12/30 01:37:02;;;;;;;2.00;1.10;;;12.20;39.50;;;;;;4993297;28;20225;-73
2022/12/30 01:39:28;;;;;;;2.00;1.03;;;12.10;39.40;;;;;;4993477;28;20519;-73
2022/12/30 01:41:55;;;;;;;2.10;1.20;;;11.90;40.40;;;;;;4992834;28;20507;-73
2022/12/30 01:44:48;;;;;;;2.10;1.20;;;12.00;38.80;;;;;;4993138;28;20328;-72
2022/12/30 01:47:40;;;;;;;1.93;1.10;;;11.40;40.00;;;;;;4992964;28;20436;-72
2022/12/30 01:50:28;;;;;;;2.00;1.00;;;11.60;39.20;;;;;;4992984;28;20532;-73
2022/12/30 01:53:13;;;;;;;1.92;1.10;;;11.50;39.30;;;;;;4992415;28;20178;-72
2022/12/30 01:55:51;;;;;;;1.92;1.10;;;11.70;40.00;;;;;;4993077;28;20209;-73
2022/12/30 01:58:23;;;;;;;2.00;1.10;;;11.70;39.80;;;;;;4992838;28;20170;-73
2022/12/30 02:00:48;;;;;;;2.00;1.20;;;11.90;39.20;;;;;;4992749;28;20389;-73
2022/12/30 02:03:15;;;;;;;2.00;1.10;;;11.90;38.90;;;;;;4992772;28;20197;-72
2022/12/30 02:05:42;;;;;;;2.00;1.10;;;12.20;40.20;;;;;;4993281;28;20178;-72
2022/12/30 02:08:16;;;;;;;2.00;1.15;;;11.80;39.70;;;;;;4992621;28;20186;-73
2022/12/30 02:10:47;;;;;;;2.00;1.20;;;12.00;39.60;;;;;;4992560;28;20189;-73
2022/12/30 02:13:14;;;;;;;1.98;1.10;;;12.00;40.80;;;;;;4992500;28;20572;-72
2022/12/30 02:16:10;;;;;;;1.90;1.00;;;11.90;41.40;;;;;;4992739;28;20204;-72
2022/12/30 02:18:47;;;;;;;1.90;1.00;;;11.80;41.10;;;;;;4992803;28;20173;-72
2022/12/30 02:21:34;;;;;;;1.90;1.10;;;11.60;41.30;;;;;;4992552;28;20180;-72
2022/12/30 02:24:21;;;;;;;2.00;1.10;;;11.70;41.30;;;;;;4992207;28;20194;-72
2022/12/30 02:26:55;;;;;;;1.98;1.17;;;11.70;41.10;;;;;;4997037;28;20212;-72
2022/12/30 02:29:42;;;;;;;1.83;1.00;;;11.70;41.30;;;;;;4992466;28;20193;-72
2022/12/30 02:32:30;;;;;;;1.90;1.10;;;11.50;41.90;;;;;;4974732;28;20273;-72
2022/12/30 02:35:04;;;;;;;2.08;1.27;;;11.40;41.20;;;;;;4992138;28;20280;-73
2022/12/30 02:37:59;;;;;;;1.80;1.10;;;11.40;42.00;;;;;;4992443;28;20241;-72
2022/12/30 02:46:14;;;;;;;1.80;1.10;;;11.40;43.00;;;;;;4992401;28;20227;-72
2022/12/30 02:48:44;;;;;;;1.90;1.10;;;11.40;40.50;;;;;;4992217;28;20603;-72
2022/12/30 02:53:55;;;;;;;1.90;1.20;;;10.80;42.60;;;;;;5029527;22;20644;-73
2022/12/30 02:56:20;;;;;;;1.80;1.00;;;11.10;42.00;;;;;;4988117;28;20450;-73
2022/12/30 03:03:56;;;;;;;1.90;1.20;;;11.10;42.40;;;;;;4992009;28;20546;-73
2022/12/30 03:04:53;;;;;;;1.80;1.00;;;11.10;42.10;;;;;;4991971;28;20205;-73
2022/12/30 03:07:43;;;;;;;1.80;1.10;;;11.00;42.30;;;;;;4979378;28;20185;-73
2022/12/30 03:13:31;;;;;;;2.00;1.20;;;11.20;42.20;;;;;;4972731;28;20189;-73
2022/12/30 03:16:23;;;;;;;1.80;1.10;;;10.90;42.60;;;;;;4972278;28;20729;-73
2022/12/30 03:18:50;;;;;;;1.80;1.10;;;10.90;42.70;;;;;;4972602;28;20535;-73
2022/12/30 03:21:18;;;;;;;1.90;1.10;;;10.90;42.70;;;;;;4972270;28;20183;-74
2022/12/30 03:29:25;;;;;;;1.88;1.10;;;11.20;41.40;;;;;;4972813;28;20572;-73
2022/12/30 03:31:52;;;;;;;1.80;1.10;;;10.90;42.00;;;;;;4970817;28;20174;-73
2022/12/30 03:34:18;;;;;;;1.90;1.20;;;10.80;41.90;;;;;;4972114;28;20183;-73
2022/12/30 03:36:48;;;;;;;1.90;1.20;;;10.60;42.50;;;;;;4972140;28;20735;-73
2022/12/30 03:39:21;;;;;;;1.80;1.10;;;10.40;43.60;;;;;;4972500;28;20178;-73
2022/12/30 03:41:49;;;;;;;1.80;1.10;;;10.20;43.60;;;;;;4972100;28;20282;-73
2022/12/30 03:44:17;;;;;;;1.80;1.10;;;10.40;43.80;;;;;;4975653;28;20199;-73
2022/12/30 03:46:44;;;;;;;1.80;1.10;;;10.90;42.30;;;;;;4976009;28;20237;-74
2022/12/30 03:49:10;;;;;;;1.80;1.10;;;11.10;41.40;;;;;;4975827;28;20225;-73
2022/12/30 03:51:36;;;;;;;1.80;1.00;;;10.80;41.70;;;;;;4975798;28;20648;-73
2022/12/30 03:54:02;;;;;;;1.80;1.17;;;11.00;41.10;;;;;;4975310;28;20430;-73
2022/12/30 03:56:27;;;;;;;1.80;1.17;;;10.80;41.70;;;;;;4976044;28;20214;-73
2022/12/30 03:58:54;;;;;;;1.80;1.10;;;10.70;41.60;;;;;;4975796;28;20173;-75
2022/12/30 04:01:19;;;;;;;1.70;1.10;;;10.70;42.20;;;;;;4975671;28;20262;-73
2022/12/30 04:03:45;;;;;;;1.80;1.10;;;10.80;41.70;;;;;;4975354;28;20626;-74
2022/12/30 04:06:11;;;;;;;1.80;1.10;;;10.90;41.20;;;;;;4975822;28;20178;-75
2022/12/30 04:08:37;;;;;;;1.80;1.00;;;10.80;41.30;;;;;;4975634;28;20541;-73
2022/12/30 04:11:03;;;;;;;1.80;1.10;;;10.60;41.80;;;;;;4975425;28;20183;-73
2022/12/30 04:13:28;;;;;;;1.70;1.00;;;10.40;42.50;;;;;;4975707;28;20613;-73
2022/12/30 04:15:54;;;;;;;1.80;1.10;;;10.60;42.40;;;;;;4975460;28;20710;-73
2022/12/30 04:18:19;;;;;;;1.80;1.10;;;10.60;41.80;;;;;;4975305;28;20173;-74
2022/12/30 04:20:46;;;;;;;1.87;1.20;;;10.30;42.80;;;;;;4975327;28;20241;-74
2022/12/30 04:23:12;;;;;;;2.20;1.42;;;10.40;42.80;;;;;;4975454;28;20175;-73
2022/12/30 04:25:38;;;;;;;1.70;1.00;;;10.50;42.30;;;;;;4975123;28;20214;-75
2022/12/30 04:28:03;;;;;;;1.80;1.10;;;10.40;42.20;;;;;;4975254;28;20210;-74
2022/12/30 04:30:31;;;;;;;1.80;1.00;;;10.40;42.30;;;;;;4975132;28;20273;-73
2022/12/30 04:32:56;;;;;;;1.80;1.10;;;10.30;42.40;;;;;;4974581;28;20171;-73
2022/12/30 04:35:22;;;;;;;1.80;1.10;;;10.20;42.90;;;;;;4974959;28;20631;-73
2022/12/30 04:37:48;;;;;;;1.73;1.00;;;10.30;42.10;;;;;;4975011;28;20253;-74
2022/12/30 04:40:14;;;;;;;1.80;1.00;;;10.10;42.50;;;;;;4975003;28;20182;-74
2022/12/30 04:42:40;;;;;;;1.80;1.10;;;10.00;43.20;;;;;;4975168;28;20186;-73
2022/12/30 04:45:07;;;;;;;1.80;1.10;;;9.70;45.10;;;;;;4974565;28;20210;-74
2022/12/30 04:47:32;;;;;;;1.80;1.10;;;9.20;47.30;;;;;;4974839;28;20186;-73
2022/12/30 04:49:58;;;;;;;1.80;1.10;;;9.30;47.70;;;;;;4974690;28;20211;-74
2022/12/30 04:52:23;;;;;;;1.80;1.10;;;9.40;47.10;;;;;;4974675;28;20662;-73
2022/12/30 04:54:49;;;;;;;1.80;1.10;;;9.50;46.70;;;;;;4973134;28;20246;-73
2022/12/30 04:57:14;;;;;;;1.80;1.00;;;9.50;46.30;;;;;;4974660;28;20175;-73
2022/12/30 04:59:40;;;;;;;1.80;1.10;;;9.40;46.90;;;;;;4974675;28;20175;-74
2022/12/30 05:02:06;;;;;;;1.77;1.03;;;9.20;48.00;;;;;;4974071;28;20568;-73
2022/12/30 05:04:31;;;;;;;1.80;1.10;;;9.50;47.30;;;;;;4974507;28;20190;-73
2022/12/30 05:06:57;;;;;;;1.80;1.10;;;9.50;46.30;;;;;;4974779;28;20185;-73
2022/12/30 05:09:23;;;;;;;1.70;1.10;;;9.60;46.40;;;;;;4974400;28;20208;-74
2022/12/30 05:11:48;;;;;;;1.80;1.10;;;9.70;46.10;;;;;;4974201;28;20261;-73
2022/12/30 05:14:14;;;;;;;1.80;1.10;;;9.70;45.60;;;;;;4974325;28;20198;-73
2022/12/30 05:16:39;;;;;;;1.80;1.10;;;10.00;43.80;;;;;;4973902;28;20189;-73
2022/12/30 05:19:05;;;;;;;1.80;1.10;;;10.00;43.40;;;;;;4972902;28;20202;-73
2022/12/30 05:21:30;;;;;;;1.70;1.00;;;10.00;43.00;;;;;;4974121;28;20170;-73
2022/12/30 05:26:40;;;;;;;1.80;1.10;;;9.80;45.00;;;;;;4973995;28;20189;-73
2022/12/30 05:29:06;;;;;;;1.70;1.00;;;9.90;45.70;;;;;;4973987;28;20285;-73
2022/12/30 05:31:31;;;;;;;1.73;1.00;;;9.80;45.10;;;;;;4973982;28;20178;-73
2022/12/30 05:33:57;;;;;;;1.90;1.20;;;9.90;44.90;;;;;;4973539;28;20206;-74
2022/12/30 05:36:22;;;;;;;1.80;1.10;;;9.60;45.40;;;;;;4972980;28;20667;-73
2022/12/30 05:38:48;;;;;;;1.80;1.10;;;9.50;46.00;;;;;;4973823;28;20183;-75
2022/12/30 05:41:14;;;;;;;1.70;1.00;;;9.70;45.40;;;;;;4972533;28;20607;-73
2022/12/30 05:43:39;;;;;;;1.77;1.10;;;9.90;45.10;;;;;;4973605;28;20225;-74
2022/12/30 05:46:05;;;;;;;1.97;1.30;;;10.10;43.00;;;;;;4973691;28;20198;-73
2022/12/30 05:48:30;;;;;;;1.80;1.10;;;10.20;43.30;;;;;;4973533;28;20166;-73
2022/12/30 05:50:56;;;;;;;1.80;1.10;;;10.20;42.70;;;;;;4973469;28;20202;-74
2022/12/30 05:53:22;;;;;;;1.80;1.10;;;10.00;43.10;;;;;;4973558;28;20177;-73
2022/12/30 05:55:47;;;;;;;1.90;1.20;;;10.10;43.00;;;;;;4973430;28;20210;-73
2022/12/30 05:58:13;;;;;;;1.70;1.10;;;10.30;42.10;;;;;;4973205;28;20593;-73
2022/12/30 06:00:39;;;;;;;1.80;1.10;;;10.30;41.70;;;;;;4973883;28;20181;-74
2022/12/30 06:03:04;;;;;;;1.77;1.07;;;9.90;43.40;;;;;;4973340;28;20213;-74
2022/12/30 06:05:30;;;;;;;1.70;1.00;;;9.80;43.80;;;;;;4973118;28;20293;-74
2022/12/30 06:07:55;;;;;;;1.80;1.10;;;9.90;44.20;;;;;;4973292;28;20262;-73
2022/12/30 06:10:21;;;;;;;1.80;1.20;;;9.90;43.90;;;;;;4973329;28;20198;-74
2022/12/30 06:12:47;;;;;;;1.70;1.10;;;9.70;44.70;;;;;;4972837;28;20280;-74
2022/12/30 06:15:12;;;;;;;1.80;1.10;;;9.60;44.70;;;;;;4973009;28;20678;-74
2022/12/30 06:17:38;;;;;;;1.80;1.00;;;9.70;45.00;;;;;;4973111;28;20541;-74
2022/12/30 06:20:04;;;;;;;1.80;1.10;;;9.80;44.30;;;;;;4973254;28;20191;-73
2022/12/30 06:22:30;;;;;;;1.80;1.10;;;9.90;44.10;;;;;;4972808;28;20190;-73
2022/12/30 06:24:55;;;;;;;1.80;1.10;;;9.80;43.90;;;;;;4973294;28;20206;-74
2022/12/30 06:27:21;;;;;;;1.80;1.13;;;9.90;43.40;;;;;;4972885;28;20175;-74
2022/12/30 06:29:48;;;;;;;1.80;1.10;;;9.90;43.80;;;;;;4973006;28;20616;-73
2022/12/30 06:32:14;;;;;;;1.70;1.10;;;9.50;44.70;;;;;;4971354;28;20221;-74
2022/12/30 06:34:40;;;;;;;1.80;1.10;;;9.60;44.70;;;;;;4972793;28;20242;-74
2022/12/30 06:37:05;;;;;;;1.80;1.00;;;9.90;44.10;;;;;;4972985;28;20545;-73
2022/12/30 06:39:31;;;;;;;1.70;1.00;;;9.60;44.80;;;;;;4972866;28;20261;-74
2022/12/30 06:41:56;;;;;;;1.90;1.20;;;9.30;46.00;;;;;;4971178;28;20222;-74
2022/12/30 06:44:22;;;;;;;1.70;1.10;;;9.50;45.20;;;;;;4972656;28;20241;-74
2022/12/30 06:46:47;;;;;;;1.80;1.00;;;9.60;44.60;;;;;;4972821;28;20210;-73
2022/12/30 06:49:13;;;;;;;1.80;1.10;;;9.70;44.70;;;;;;4972632;28;20214;-75
2022/12/30 06:51:39;;;;;;;1.80;1.10;;;9.50;45.10;;;;;;4972551;28;20175;-73
2022/12/30 06:54:05;;;;;;;1.75;1.00;;;9.20;46.20;;;;;;4972237;28;20212;-73
2022/12/30 06:56:30;;;;;;;1.80;1.10;;;9.00;46.50;;;;;;4972672;28;20194;-73
2022/12/30 06:58:56;;;;;;;1.70;1.00;;;9.00;47.20;;;;;;4972506;28;20217;-73
2022/12/30 07:01:21;;;;;;;1.77;1.10;;;9.00;47.50;;;;;;4972549;28;20201;-74
2022/12/30 07:03:47;;;;;;;1.80;1.20;;;8.50;48.70;;;;;;4972142;28;20403;-73
2022/12/30 07:06:13;;;;;;;2.20;1.23;;;8.70;48.40;;;;;;4972823;28;20179;-73
2022/12/30 07:08:38;;;;;;;1.80;1.10;;;9.10;46.90;;;;;;4972604;28;20178;-74
2022/12/30 07:11:04;;;;;;;1.80;1.10;;;9.20;46.40;;;;;;4972241;28;20206;-74
2022/12/30 07:13:29;;;;;;;1.80;1.10;;;9.10;46.30;;;;;;4972526;28;20198;-73
2022/12/30 07:15:55;;;;;;;1.70;1.10;;;9.20;46.20;;;;;;4972427;28;20190;-73
2022/12/30 07:18:21;;;;;;;1.80;1.10;;;9.40;45.70;;;;;;4974745;28;20543;-73
2022/12/30 07:20:46;;;;;;;1.80;1.17;;;9.50;45.20;;;;;;4976386;28;20178;-74
2022/12/30 07:23:12;;;;;;;1.80;1.13;;;9.00;46.10;;;;;;4976345;28;20206;-73
2022/12/30 07:25:37;;;;;;;1.83;1.10;;;9.00;46.40;;;;;;4976226;28;20258;-73
2022/12/30 07:28:03;;;;;;;1.80;1.13;;;9.10;46.30;;;;;;4976233;28;20186;-74
2022/12/30 07:30:30;;;;;;;1.80;1.10;;;9.50;45.20;;;;;;4975907;28;20298;-74
2022/12/30 07:32:56;;;;;;;1.70;1.10;;;9.40;44.80;;;;;;4975969;28;20205;-73
2022/12/30 07:35:22;;;;;;;1.70;1.00;;;9.50;45.10;;;;;;4976028;28;20198;-74
2022/12/30 07:37:49;;;;;;;1.70;1.00;;;9.50;44.80;;;;;;4976296;28;20175;-75
2022/12/30 07:40:15;;;;;;;1.80;1.10;;;9.70;44.30;;;;;;4975942;28;20187;-74
2022/12/30 07:42:41;;;;;;;1.70;1.07;;;9.60;44.40;;;;;;4975679;28;20654;-74
2022/12/30 07:45:07;;;;;;;1.80;1.10;;;9.40;44.80;;;;;;4975621;28;20195;-74
2022/12/30 07:47:33;;;;;;;1.90;1.20;;;9.30;45.80;;;;;;4975980;28;20206;-75
2022/12/30 07:50:00;;;;;;;1.80;1.10;;;9.20;45.80;;;;;;4975758;28;20202;-74
2022/12/30 07:52:26;;;;;;;1.80;1.10;;;9.50;45.20;;;;;;4975779;28;20232;-74
2022/12/30 07:54:51;;;;;;;1.80;1.10;;;9.60;45.00;;;;;;4975326;28;20210;-74
2022/12/30 07:57:17;;;;;;;1.80;1.10;;;9.70;44.40;;;;;;4975644;28;20262;-74
2022/12/30 07:59:42;;;;;;;2.00;1.20;;;9.40;44.60;;;;;;4975762;28;20651;-74
2022/12/30 08:02:11;;;;;;;1.70;1.10;;;9.40;45.30;;;;;;4975518;28;20180;-74
2022/12/30 08:04:36;;;;;;;1.73;1.10;;;9.20;45.80;;;;;;4975838;28;20558;-74
2022/12/30 08:07:02;;;;;;;1.70;1.10;;;9.10;46.90;;;;;;4975403;28;20189;-74
2022/12/30 08:09:28;;;;;;;1.90;1.20;;;9.20;47.20;;;;;;4975419;28;20612;-74
2022/12/30 08:11:53;;;;;;;1.80;1.20;;;9.10;47.50;;;;;;4975305;28;20254;-75
2022/12/30 08:14:19;;;;;;;1.70;1.00;;;8.70;48.40;;;;;;4975295;28;20183;-74
2022/12/30 08:16:44;;;;;;;1.70;1.00;;;8.70;48.40;;;;;;4974176;28;20533;-74
2022/12/30 08:19:10;;;;;;;1.80;1.10;;;8.80;48.50;;;;;;4973979;28;20270;-74
2022/12/30 08:21:36;;;;;;;1.80;1.10;;;9.10;48.20;;;;;;4975084;28;20187;-74
2022/12/30 08:24:01;;;;;;;1.80;1.20;;;9.50;46.70;;;;;;4974948;28;20167;-74
2022/12/30 08:26:27;;;;;;;1.80;1.20;;;9.40;46.30;;;;;;4975320;28;20710;-74
2022/12/30 08:28:53;;;;;;;1.70;1.10;;;9.20;47.20;;;;;;4974863;28;20222;-74
2022/12/30 08:31:21;;;;;;;1.80;1.10;;;9.20;47.10;;;;;;4975679;28;20167;-74
2022/12/30 08:33:47;;;;;;;1.70;1.10;;;9.10;47.70;;;;;;4962157;28;20208;-74
2022/12/30 08:36:15;;;;;;;1.70;1.00;;;9.40;46.90;;;;;;4955919;28;20656;-74
2022/12/30 08:38:43;;;;;;;1.80;1.10;;;9.20;46.90;;;;;;4955701;28;20185;-74
2022/12/30 08:41:24;;;;;;;1.70;1.00;;;9.40;46.60;;;;;;4955575;28;20266;-74
2022/12/30 08:43:50;;;;;;;1.80;1.10;;;9.50;46.00;;;;;;4955538;28;20167;-74
2022/12/30 08:46:16;;;;;;;1.70;1.05;;;9.40;47.10;;;;;;4954235;29;20667;-74
2022/12/30 08:48:42;;;;;;;1.70;1.00;;;9.60;46.80;;;;;;4955579;28;20220;-75
2022/12/30 08:51:09;;;;;;;2.40;1.37;;;9.60;46.50;;;;;;4954971;28;20356;-74
2022/12/30 08:53:35;;;;;;;1.70;1.10;;;9.70;45.90;;;;;;4955367;28;20440;-75
2022/12/30 08:56:02;;;;;;;1.70;1.10;;;9.90;46.70;;;;;;4955047;29;20636;-75
2022/12/30 08:58:28;;;;;;;1.80;1.10;;;9.60;46.40;;;;;;4955422;28;20478;-74
2022/12/30 09:00:53;;;;;;;1.80;1.10;;;9.60;46.50;;;;;;4954987;29;20179;-74
2022/12/30 09:03:19;;;;;;;1.70;1.10;;;9.50;46.90;;;;;;4954010;29;20545;-74
2022/12/30 09:05:49;;;;;;;1.70;1.00;;;9.80;46.30;;;;;;4954906;29;20222;-74
2022/12/30 09:08:15;;;;;;;1.70;1.00;;;10.10;44.50;;;;;;4955338;28;20173;-74
2022/12/30 09:10:40;;;;;;;1.77;1.13;;;10.10;44.00;;;;;;4954884;29;20206;-74
2022/12/30 09:13:06;;;;;;;1.70;1.10;;;9.80;46.20;;;;;;4954956;29;20267;-74
2022/12/30 09:15:32;;;;;;;1.93;1.30;;;9.80;47.00;;;;;;4953836;29;20791;-74
2022/12/30 09:17:57;;;;;;;1.80;1.20;;;9.90;46.00;;;;;;4954977;28;20179;-75
2022/12/30 09:20:23;;;;;;;1.70;1.10;;;10.10;44.20;;;;;;4954897;29;20182;-74
2022/12/30 09:22:48;;;;;;;1.70;1.10;;;9.90;46.10;;;;;;4954837;29;20252;-74
2022/12/30 09:25:14;;;;;;;2.20;1.30;;;10.30;44.20;;;;;;4957074;28;20207;-74
2022/12/30 09:27:40;;;;;;;1.80;1.20;;;10.50;43.60;;;;;;4984594;28;20210;-74
2022/12/30 09:30:06;;;;;;;1.70;1.10;;;10.30;44.10;;;;;;4983439;28;20260;-74
2022/12/30 09:32:31;;;;;;;1.70;1.10;;;10.60;42.80;;;;;;4974036;28;20172;-74
2022/12/30 09:34:57;;;;;;;2.57;1.60;;;10.70;42.80;;;;;;4973496;28;20572;-74
2022/12/30 09:37:24;;;;;;;1.90;1.20;;;10.50;43.00;;;;;;4973990;28;20232;-74
2022/12/30 09:39:49;;;;;;;1.90;1.30;;;10.90;42.50;;;;;;4973341;28;20174;-74
2022/12/30 09:45:21;;;;;;;1.80;1.10;;;11.30;40.50;;;;;;4973656;28;20320;-74
2022/12/30 09:47:50;;;;;;;1.80;1.20;;;11.30;40.40;;;;;;4973900;28;20166;-74
2022/12/30 09:50:30;;;;;;;2.33;1.45;;;11.20;41.30;;;;;;4973915;28;20631;-74
2022/12/30 09:53:08;;;;;;;1.80;1.20;;;11.30;41.50;;;;;;4973370;28;20177;-74
2022/12/30 09:56:12;;;;;;;1.80;1.10;;;11.20;40.70;;;;;;4973581;28;20278;-75
2022/12/30 09:58:38;;;;;;;1.80;1.10;;;10.90;42.70;;;;;;4972055;28;20225;-76
2022/12/30 10:01:35;;;;;;;2.57;1.60;;;10.90;42.90;;;;;;4973212;28;20182;-74
2022/12/30 10:04:01;;;;;;;1.80;1.10;;;11.30;41.30;;;;;;4973176;28;20165;-74
2022/12/30 10:06:33;;;;;;;1.70;1.10;;;11.70;40.70;;;;;;4973493;28;20546;-74
2022/12/30 10:09:40;;;;;;;1.70;1.00;;;11.60;39.50;;;;;;4973381;28;20974;-75
2022/12/30 10:12:21;;;;;;;1.80;1.10;;;10.90;42.50;;;;;;4951172;28;20694;-74
2022/12/30 10:15:06;;;;;;;1.80;1.10;;;12.40;43.50;;;;;;4951535;28;20249;-75
2022/12/30 10:17:56;;;;;;;1.90;1.10;;;10.80;42.80;;;;;;4951647;29;20643;-74
2022/12/30 10:20:41;;;;;;;1.80;1.10;;;11.50;40.60;;;;;;4951650;29;20520;-74
2022/12/30 10:23:35;;;;;;;1.90;1.10;;;11.20;42.10;;;;;;4951308;28;20885;-75
2022/12/30 10:26:08;;;;;;;1.90;1.10;;;11.60;40.80;;;;;;4951206;28;20451;-74
2022/12/30 10:28:38;;;;;;;1.80;1.10;;;11.00;43.20;;;;;;4951618;28;20558;-74
2022/12/30 10:31:07;;;;;;;1.90;1.10;;;11.10;41.80;;;;;;4951321;29;20933;-74
2022/12/30 10:33:34;;;;;;;1.90;1.10;;;11.40;42.00;;;;;;4935285;29;20414;-74
2022/12/30 10:36:15;;;;;;;2.00;1.20;;;11.90;40.10;;;;;;4951010;28;20503;-74
2022/12/30 10:38:41;;;;;;;2.00;1.10;;;11.90;38.90;;;;;;4951383;29;20486;-74
2022/12/30 10:41:20;;;;;;;2.00;1.10;;;12.20;38.40;;;;;;4951123;29;20407;-74
2022/12/30 10:44:07;;;;;;;1.97;1.10;;;11.70;39.30;;;;;;4950703;28;20845;-74
2022/12/30 10:46:53;;;;;;;2.00;1.00;;;11.70;39.90;;;;;;4951278;28;20450;-74
2022/12/30 10:49:43;;;;;;;2.00;1.03;;;12.00;38.40;;;;;;4952776;29;20462;-74
2022/12/30 10:52:12;;;;;;;2.10;1.10;;;11.80;39.50;;;;;;4953235;28;20882;-74
2022/12/30 10:54:38;;;;;;;2.10;1.10;;;11.40;40.40;;;;;;4953135;28;20517;-74
2022/12/30 10:57:03;;;;;;;2.10;1.10;;;11.80;39.50;;;;;;4953295;29;20419;-74
2022/12/30 10:59:31;;;;;;;2.10;1.10;;;11.50;40.20;;;;;;4953402;29;20180;-74
2022/12/30 11:02:21;;;;;;;2.10;1.10;;;11.40;41.00;;;;;;4968095;28;20178;-74
2022/12/30 11:04:46;;;;;;;2.20;1.10;;;11.70;40.50;;;;;;4972321;28;20457;-74
2022/12/30 11:07:14;;;;;;;2.27;1.17;;;11.40;41.30;;;;;;4972570;28;20836;-74
2022/12/30 11:09:41;;;;;;;2.20;1.00;;;11.60;40.30;;;;;;4972417;28;20248;-74
2022/12/30 11:15:07;;;;;;;2.27;1.10;;;12.30;37.80;;;;;;4972157;28;20484;-74
2022/12/30 11:17:50;;;;;;;2.37;1.17;;;12.80;38.20;;;;;;4954888;28;20438;-74
2022/12/30 11:20:15;;;;;;;2.30;1.10;;;12.50;38.00;;;;;;4953163;28;20527;-74
2022/12/30 11:22:52;;;;;;;2.43;1.20;;;13.00;37.60;;;;;;4952836;28;20411;-74
2022/12/30 11:25:24;;;;;;;2.40;1.00;;;12.90;36.40;;;;;;4952477;28;20199;-74
2022/12/30 11:27:53;;;;;;;2.57;1.20;;;12.50;36.30;;;;;;4961087;28;20426;-74
2022/12/30 11:30:38;;;;;;;2.60;1.10;;;13.50;36.50;;;;;;4972155;28;20466;-75
2022/12/30 11:33:15;;;;;;;2.60;1.10;;;13.20;35.40;;;;;;4972161;28;20805;-73
2022/12/30 11:35:46;;;;;;;2.70;1.17;;;13.70;35.10;;;;;;4971890;28;20529;-73
2022/12/30 11:38:34;;;;;;;2.60;1.10;;;13.70;34.90;;;;;;4972183;28;20452;-74
2022/12/30 11:41:17;;;;;;;2.80;1.20;;;13.70;35.60;;;;;;4971733;28;20415;-74
2022/12/30 11:43:48;;;;;;;2.73;1.10;;;14.00;33.90;;;;;;4972175;28;20433;-75
2022/12/30 11:46:16;;;;;;;2.80;1.20;;;13.80;34.60;;;;;;4970868;28;20431;-74
2022/12/30 11:49:02;;;;;;;3.00;1.30;;;13.70;34.30;;;;;;4972012;28;20412;-74
2022/12/30 11:51:42;;;;;;;2.83;1.10;;;13.90;35.10;;;;;;4972073;28;20421;-74
2022/12/30 11:54:10;;;;;;;2.90;1.20;;;13.40;35.50;;;;;;4970243;28;20473;-74
2022/12/30 11:56:38;;;;;;;2.90;1.10;;;13.60;35.20;;;;;;4971972;28;20885;-74
2022/12/30 11:59:15;;;;;;;2.90;1.20;;;13.60;34.70;;;;;;4971943;28;20903;-74
2022/12/30 12:01:47;;;;;;;3.43;1.43;;;13.60;35.00;;;;;;4971918;28;20413;-74
2022/12/30 12:04:49;;;;;;;2.83;1.10;;;13.80;35.80;;;;;;4973746;28;20436;-73
2022/12/30 12:07:17;;;;;;;2.83;1.10;;;13.60;36.50;;;;;;4973070;28;20629;-74
2022/12/30 12:09:52;;;;;;;2.80;1.10;;;13.70;36.50;;;;;;4972599;28;20509;-75
2022/12/30 12:12:21;;;;;;;2.80;1.10;;;12.80;36.70;;;;;;4973018;28;20411;-73
2022/12/30 12:15:15;;;;;;;2.80;1.20;;;12.80;38.10;;;;;;4972493;28;20443;-74
2022/12/30 12:18:11;;;;;;;2.80;1.20;;;12.80;36.90;;;;;;4972914;28;20402;-74
2022/12/30 12:21:08;;;;;;;2.67;1.00;;;12.70;37.20;;;;;;4972918;28;20895;-74
2022/12/30 12:24:07;;;;;;;2.70;1.10;;;12.20;38.90;;;;;;4967298;28;20720;-74
2022/12/30 12:26:47;;;;;;;2.70;1.10;;;12.20;39.30;;;;;;4972901;28;20407;-74
2022/12/30 12:29:14;;;;;;;2.63;1.10;;;12.20;38.50;;;;;;4972358;28;20489;-74
2022/12/30 12:32:07;;;;;;;2.70;1.20;;;12.50;37.70;;;;;;4972658;28;20414;-74
2022/12/30 12:34:51;;;;;;;2.70;1.20;;;12.60;38.90;;;;;;4972644;28;20524;-74
2022/12/30 12:37:22;;;;;;;2.70;1.20;;;12.60;39.10;;;;;;4972718;28;20426;-74
2022/12/30 12:40:12;;;;;;;2.73;1.20;;;12.40;38.60;;;;;;4970977;28;20448;-73
2022/12/30 12:43:15;;;;;;;2.70;1.20;;;12.40;38.40;;;;;;4971979;28;20530;-74
2022/12/30 12:45:40;;;;;;;2.70;1.20;;;12.90;38.30;;;;;;4978132;28;20521;-74
2022/12/30 12:48:26;;;;;;;2.67;1.20;;;13.00;38.00;;;;;;4974714;28;20514;-74
2022/12/30 12:51:17;;;;;;;2.70;1.20;;;13.10;36.50;;;;;;4974055;28;20206;-73
2022/12/30 12:54:06;;;;;;;2.60;1.20;;;13.00;36.50;;;;;;4974695;28;20412;-74
2022/12/30 12:57:00;;;;;;;2.70;1.20;;;13.10;35.70;;;;;;4974803;28;20489;-74
2022/12/30 12:59:45;;;;;;;2.70;1.20;;;13.30;36.10;;;;;;4974420;28;20481;-73
2022/12/30 13:02:33;;;;;;;2.60;1.10;;;13.00;38.20;;;;;;4973152;28;20427;-74
2022/12/30 13:05:09;;;;;;;2.60;1.10;;;12.40;38.30;;;;;;4974360;28;20444;-74
2022/12/30 13:08:13;;;;;;;2.70;1.20;;;12.60;38.00;;;;;;4974466;28;20414;-74
2022/12/30 13:11:06;;;;;;;2.70;1.20;;;12.60;38.90;;;;;;4970807;28;20978;-74
2022/12/30 13:13:48;;;;;;;3.17;1.30;;;12.70;37.70;;;;;;4973689;28;20489;-80
2022/12/30 13:16:19;;;;;;;2.70;1.10;;;12.50;38.90;;;;;;4971283;28;20442;-74
2022/12/30 13:18:47;;;;;;;2.73;1.20;;;12.80;38.50;;;;;;4973122;28;20433;-72
2022/12/30 13:21:19;;;;;;;2.70;1.20;;;12.80;38.90;;;;;;4973036;28;20500;-72
2022/12/30 13:23:49;;;;;;;2.70;1.27;;;12.30;38.80;;;;;;4967379;28;20817;-72
2022/12/30 13:26:15;;;;;;;2.80;1.20;;;12.90;38.60;;;;;;4970729;28;20447;-73
2022/12/30 13:28:46;;;;;;;2.70;1.10;;;12.80;39.20;;;;;;4972782;28;20442;-73
2022/12/30 13:31:34;;;;;;;2.63;1.10;;;12.40;37.90;;;;;;4971706;28;20204;-73
2022/12/30 13:34:18;;;;;;;2.70;1.20;;;13.00;37.40;;;;;;4971460;28;20498;-79
2022/12/30 13:37:05;;;;;;;2.70;1.10;;;12.90;37.30;;;;;;4969970;28;20926;-77
2022/12/30 13:39:46;;;;;;;2.70;1.10;;;12.50;37.90;;;;;;4975085;28;20433;-78
2022/12/30 13:42:33;;;;;;;3.17;1.53;;;12.70;37.60;;;;;;4977331;28;20438;-79
2022/12/30 13:45:00;;;;;;;2.70;1.10;;;12.60;38.50;;;;;;4971171;28;20462;-77
2022/12/30 13:47:35;;;;;;;2.80;1.50;;;12.80;39.30;;;;;;4971389;28;20438;-77
2022/12/30 13:50:20;;;;;;;2.70;1.30;;;12.30;39.20;;;;;;4966922;28;20465;-79
2022/12/30 13:52:57;;;;;;;2.70;1.20;;;12.40;38.70;;;;;;4971898;28;20899;-76
2022/12/30 13:55:26;;;;;;;2.80;1.30;;;12.70;39.10;;;;;;4972930;28;20492;-77
2022/12/30 13:58:21;;;;;;;2.93;1.33;;;12.50;39.20;;;;;;4969774;28;20443;-73
2022/12/30 14:01:27;;;;;;;3.10;1.40;;;12.70;38.00;;;;;;4970118;28;20499;-74
2022/12/30 14:04:11;;;;;;;2.53;1.10;;;12.70;38.90;;;;;;4962809;28;20476;-75
2022/12/30 14:06:46;;;;;;;2.80;1.40;;;12.20;42.00;;;;;;4968360;28;20442;-74
2022/12/30 14:09:26;;;;;;;2.50;1.10;;;12.00;42.10;;;;;;4970258;28;20496;-74
2022/12/30 14:12:04;;;;;;;2.53;1.17;;;12.20;43.40;;;;;;4971400;28;20478;-73
2022/12/30 14:14:34;;;;;;;2.50;1.23;;;12.30;43.30;;;;;;4969645;28;20483;-74